Terminal Aerodrome Forecast
Issued by NWS

Home | Current Version | Previous Version | Text Only | Print | Product List | Glossary On
Versions: 1 2 3 4 5 6 7 8 9 10 11 12 13 14 15 16 17 18 19 20 21 22 23 24 25 26 27 28 29 30 31 32 33
000
FTUS43 KMKX 021722
TAFUES
TAF
KUES 021722Z 0218/0318 23015G25KT P6SM FEW150
     FM022200 22013G23KT P6SM VCTS SCT090CB
     FM022300 24013G23KT 5SM -TSRA BKN070CB
     FM030000 25014G24KT P6SM VCTS BKN090CB
     FM030100 26010KT P6SM BKN140
     FM030400 28006KT P6SM SCT070
     FM030600 30005KT P6SM SCT050
     FM031500 30010G17KT P6SM FEW250=

USA.gov is the U.S. government's official web portal to all federal, state and local government web resources and services.